sensor_id;sensor_type;location;lat;lon;timestamp;P1;durP1;ratioP1;P2;durP2;ratioP2
65047;SDS011;52089;51.362;-2.384;2023-02-15T00:03:06;9.90;;;7.57;;
65047;SDS011;52089;51.362;-2.384;2023-02-15T00:06:48;12.03;;;8.13;;
65047;SDS011;52089;51.362;-2.384;2023-02-15T00:10:31;10.37;;;7.60;;
65047;SDS011;52089;51.362;-2.384;2023-02-15T00:14:13;9.80;;;7.53;;
65047;SDS011;52089;51.362;-2.384;2023-02-15T00:18:03;9.55;;;8.27;;
65047;SDS011;52089;51.362;-2.384;2023-02-15T00:21:44;9.50;;;8.00;;
65047;SDS011;52089;51.362;-2.384;2023-02-15T00:25:27;9.17;;;8.07;;
65047;SDS011;52089;51.362;-2.384;2023-02-15T00:29:09;10.47;;;8.80;;
65047;SDS011;52089;51.362;-2.384;2023-02-15T00:33:00;10.00;;;8.07;;
65047;SDS011;52089;51.362;-2.384;2023-02-15T00:36:55;9.53;;;8.27;;
65047;SDS011;52089;51.362;-2.384;2023-02-15T00:40:42;10.87;;;8.40;;
65047;SDS011;52089;51.362;-2.384;2023-02-15T00:48:14;11.27;;;7.83;;
65047;SDS011;52089;51.362;-2.384;2023-02-15T00:51:55;10.23;;;7.73;;
65047;SDS011;52089;51.362;-2.384;2023-02-15T00:55:38;10.60;;;8.03;;
65047;SDS011;52089;51.362;-2.384;2023-02-15T00:59:21;12.23;;;8.57;;
65047;SDS011;52089;51.362;-2.384;2023-02-15T01:03:03;11.50;;;9.37;;
65047;SDS011;52089;51.362;-2.384;2023-02-15T01:06:45;14.23;;;9.70;;
65047;SDS011;52089;51.362;-2.384;2023-02-15T01:10:27;14.47;;;9.50;;
65047;SDS011;52089;51.362;-2.384;2023-02-15T01:14:09;12.93;;;9.73;;
65047;SDS011;52089;51.362;-2.384;2023-02-15T01:17:52;14.00;;;9.80;;
65047;SDS011;52089;51.362;-2.384;2023-02-15T01:21:34;11.17;;;9.73;;
65047;SDS011;52089;51.362;-2.384;2023-02-15T01:25:16;13.70;;;10.27;;
65047;SDS011;52089;51.362;-2.384;2023-02-15T01:28:59;13.13;;;11.03;;
65047;SDS011;52089;51.362;-2.384;2023-02-15T01:32:41;13.23;;;10.57;;
65047;SDS011;52089;51.362;-2.384;2023-02-15T01:36:24;13.03;;;10.10;;
65047;SDS011;52089;51.362;-2.384;2023-02-15T01:40:07;11.10;;;9.87;;
65047;SDS011;52089;51.362;-2.384;2023-02-15T01:51:22;13.57;;;10.43;;
65047;SDS011;52089;51.362;-2.384;2023-02-15T01:55:07;11.80;;;10.00;;
65047;SDS011;52089;51.362;-2.384;2023-02-15T01:58:50;12.30;;;10.27;;
65047;SDS011;52089;51.362;-2.384;2023-02-15T02:02:36;14.10;;;10.67;;
65047;SDS011;52089;51.362;-2.384;2023-02-15T02:06:18;12.17;;;10.10;;
65047;SDS011;52089;51.362;-2.384;2023-02-15T02:10:02;14.40;;;10.77;;
65047;SDS011;52089;51.362;-2.384;2023-02-15T02:13:44;13.37;;;10.43;;
65047;SDS011;52089;51.362;-2.384;2023-02-15T02:21:34;12.47;;;10.77;;
65047;SDS011;52089;51.362;-2.384;2023-02-15T02:29:35;12.50;;;10.50;;
65047;SDS011;52089;51.362;-2.384;2023-02-15T02:33:42;16.13;;;10.47;;
65047;SDS011;52089;51.362;-2.384;2023-02-15T02:45:58;12.63;;;10.60;;
65047;SDS011;52089;51.362;-2.384;2023-02-15T02:49:47;13.83;;;11.50;;
65047;SDS011;52089;51.362;-2.384;2023-02-15T02:53:29;14.30;;;11.23;;
65047;SDS011;52089;51.362;-2.384;2023-02-15T02:57:12;13.87;;;11.80;;
65047;SDS011;52089;51.362;-2.384;2023-02-15T03:00:59;13.93;;;10.83;;
65047;SDS011;52089;51.362;-2.384;2023-02-15T03:04:55;13.93;;;11.52;;
65047;SDS011;52089;51.362;-2.384;2023-02-15T03:08:46;14.40;;;11.23;;
65047;SDS011;52089;51.362;-2.384;2023-02-15T03:12:33;13.77;;;11.10;;
65047;SDS011;52089;51.362;-2.384;2023-02-15T03:16:17;14.37;;;11.40;;
65047;SDS011;52089;51.362;-2.384;2023-02-15T03:20:08;14.13;;;11.87;;
65047;SDS011;52089;51.362;-2.384;2023-02-15T03:24:05;15.82;;;13.23;;
65047;SDS011;52089;51.362;-2.384;2023-02-15T03:27:55;13.97;;;11.63;;
65047;SDS011;52089;51.362;-2.384;2023-02-15T03:31:42;16.40;;;12.18;;
65047;SDS011;52089;51.362;-2.384;2023-02-15T03:35:31;16.27;;;11.70;;
65047;SDS011;52089;51.362;-2.384;2023-02-15T03:43:21;14.60;;;11.47;;
65047;SDS011;52089;51.362;-2.384;2023-02-15T03:47:27;14.40;;;11.80;;
65047;SDS011;52089;51.362;-2.384;2023-02-15T03:51:14;15.20;;;11.87;;
65047;SDS011;52089;51.362;-2.384;2023-02-15T03:55:15;15.60;;;12.47;;
65047;SDS011;52089;51.362;-2.384;2023-02-15T03:58:57;14.80;;;11.57;;
65047;SDS011;52089;51.362;-2.384;2023-02-15T04:07:01;14.97;;;12.17;;
65047;SDS011;52089;51.362;-2.384;2023-02-15T04:10:44;16.27;;;12.70;;
65047;SDS011;52089;51.362;-2.384;2023-02-15T04:14:37;16.67;;;12.27;;
65047;SDS011;52089;51.362;-2.384;2023-02-15T04:18:42;17.20;;;13.20;;
65047;SDS011;52089;51.362;-2.384;2023-02-15T04:22:43;15.63;;;13.00;;
65047;SDS011;52089;51.362;-2.384;2023-02-15T04:26:44;15.83;;;12.37;;
65047;SDS011;52089;51.362;-2.384;2023-02-15T04:30:25;17.97;;;13.77;;
65047;SDS011;52089;51.362;-2.384;2023-02-15T04:34:08;17.07;;;12.90;;
65047;SDS011;52089;51.362;-2.384;2023-02-15T04:37:50;16.97;;;13.90;;
65047;SDS011;52089;51.362;-2.384;2023-02-15T04:41:32;16.50;;;13.10;;
65047;SDS011;52089;51.362;-2.384;2023-02-15T04:45:15;16.57;;;13.63;;
65047;SDS011;52089;51.362;-2.384;2023-02-15T04:48:57;17.00;;;13.30;;
65047;SDS011;52089;51.362;-2.384;2023-02-15T04:52:39;16.90;;;13.53;;
65047;SDS011;52089;51.362;-2.384;2023-02-15T04:56:21;15.23;;;11.93;;
65047;SDS011;52089;51.362;-2.384;2023-02-15T05:00:02;16.50;;;13.17;;
65047;SDS011;52089;51.362;-2.384;2023-02-15T05:03:44;15.93;;;12.57;;
65047;SDS011;52089;51.362;-2.384;2023-02-15T05:07:26;16.33;;;12.90;;
65047;SDS011;52089;51.362;-2.384;2023-02-15T05:11:08;14.87;;;12.10;;
65047;SDS011;52089;51.362;-2.384;2023-02-15T05:14:50;16.27;;;12.60;;
65047;SDS011;52089;51.362;-2.384;2023-02-15T05:18:32;14.87;;;12.07;;
65047;SDS011;52089;51.362;-2.384;2023-02-15T05:22:14;13.70;;;11.37;;
65047;SDS011;52089;51.362;-2.384;2023-02-15T05:25:56;15.57;;;12.30;;
65047;SDS011;52089;51.362;-2.384;2023-02-15T05:29:56;14.10;;;11.35;;
65047;SDS011;52089;51.362;-2.384;2023-02-15T05:33:38;13.90;;;11.07;;
65047;SDS011;52089;51.362;-2.384;2023-02-15T05:37:20;14.33;;;11.57;;
65047;SDS011;52089;51.362;-2.384;2023-02-15T05:41:02;15.83;;;11.37;;
65047;SDS011;52089;51.362;-2.384;2023-02-15T05:44:45;14.33;;;11.60;;
65047;SDS011;52089;51.362;-2.384;2023-02-15T05:48:27;14.30;;;11.70;;
65047;SDS011;52089;51.362;-2.384;2023-02-15T05:52:09;12.80;;;10.93;;
65047;SDS011;52089;51.362;-2.384;2023-02-15T05:55:53;15.50;;;12.00;;
65047;SDS011;52089;51.362;-2.384;2023-02-15T05:59:40;13.90;;;11.27;;
65047;SDS011;52089;51.362;-2.384;2023-02-15T06:03:22;15.63;;;11.43;;
65047;SDS011;52089;51.362;-2.384;2023-02-15T06:07:06;15.07;;;11.50;;
65047;SDS011;52089;51.362;-2.384;2023-02-15T06:10:48;15.60;;;11.87;;
65047;SDS011;52089;51.362;-2.384;2023-02-15T06:14:30;14.27;;;11.10;;
65047;SDS011;52089;51.362;-2.384;2023-02-15T06:18:12;14.40;;;10.97;;
65047;SDS011;52089;51.362;-2.384;2023-02-15T06:21:53;14.13;;;11.20;;
65047;SDS011;52089;51.362;-2.384;2023-02-15T06:25:35;14.37;;;11.43;;
65047;SDS011;52089;51.362;-2.384;2023-02-15T06:29:20;13.73;;;11.67;;
65047;SDS011;52089;51.362;-2.384;2023-02-15T06:33:01;14.23;;;10.97;;
65047;SDS011;52089;51.362;-2.384;2023-02-15T06:36:43;14.33;;;10.80;;
65047;SDS011;52089;51.362;-2.384;2023-02-15T06:40:25;13.67;;;10.67;;
65047;SDS011;52089;51.362;-2.384;2023-02-15T06:44:07;12.90;;;10.33;;
65047;SDS011;52089;51.362;-2.384;2023-02-15T06:47:49;12.97;;;10.63;;
65047;SDS011;52089;51.362;-2.384;2023-02-15T06:51:30;13.80;;;11.40;;
65047;SDS011;52089;51.362;-2.384;2023-02-15T06:55:12;11.63;;;9.83;;
65047;SDS011;52089;51.362;-2.384;2023-02-15T06:58:54;14.57;;;10.87;;
65047;SDS011;52089;51.362;-2.384;2023-02-15T07:02:36;11.60;;;10.23;;
65047;SDS011;52089;51.362;-2.384;2023-02-15T07:06:17;13.40;;;10.43;;
65047;SDS011;52089;51.362;-2.384;2023-02-15T07:09:59;14.13;;;10.37;;
65047;SDS011;52089;51.362;-2.384;2023-02-15T07:13:41;14.13;;;10.67;;
65047;SDS011;52089;51.362;-2.384;2023-02-15T07:17:23;13.47;;;9.73;;
65047;SDS011;52089;51.362;-2.384;2023-02-15T07:21:17;12.60;;;9.53;;
65047;SDS011;52089;51.362;-2.384;2023-02-15T07:24:59;12.87;;;9.73;;
65047;SDS011;52089;51.362;-2.384;2023-02-15T07:28:40;10.60;;;8.63;;
65047;SDS011;52089;51.362;-2.384;2023-02-15T07:32:22;10.53;;;8.60;;
65047;SDS011;52089;51.362;-2.384;2023-02-15T07:36:04;9.43;;;8.20;;
65047;SDS011;52089;51.362;-2.384;2023-02-15T07:39:47;11.40;;;8.03;;
65047;SDS011;52089;51.362;-2.384;2023-02-15T07:43:28;11.60;;;8.77;;
65047;SDS011;52089;51.362;-2.384;2023-02-15T07:47:11;9.80;;;7.70;;
65047;SDS011;52089;51.362;-2.384;2023-02-15T07:50:53;9.37;;;7.63;;
65047;SDS011;52089;51.362;-2.384;2023-02-15T07:54:35;10.13;;;8.10;;
65047;SDS011;52089;51.362;-2.384;2023-02-15T07:58:16;8.50;;;7.57;;
65047;SDS011;52089;51.362;-2.384;2023-02-15T08:01:58;9.27;;;6.70;;
65047;SDS011;52089;51.362;-2.384;2023-02-15T08:05:41;9.87;;;6.67;;
65047;SDS011;52089;51.362;-2.384;2023-02-15T08:09:24;7.57;;;6.23;;
65047;SDS011;52089;51.362;-2.384;2023-02-15T08:13:06;9.57;;;7.23;;
65047;SDS011;52089;51.362;-2.384;2023-02-15T08:16:49;9.77;;;7.37;;
65047;SDS011;52089;51.362;-2.384;2023-02-15T08:20:31;8.60;;;6.90;;
65047;SDS011;52089;51.362;-2.384;2023-02-15T08:24:13;8.17;;;6.30;;
65047;SDS011;52089;51.362;-2.384;2023-02-15T08:27:56;9.57;;;7.03;;
65047;SDS011;52089;51.362;-2.384;2023-02-15T08:31:38;7.60;;;6.27;;
65047;SDS011;52089;51.362;-2.384;2023-02-15T08:35:22;7.73;;;6.00;;
65047;SDS011;52089;51.362;-2.384;2023-02-15T08:39:04;7.23;;;6.00;;
65047;SDS011;52089;51.362;-2.384;2023-02-15T08:42:47;9.50;;;5.80;;
65047;SDS011;52089;51.362;-2.384;2023-02-15T08:46:30;7.97;;;5.97;;
65047;SDS011;52089;51.362;-2.384;2023-02-15T08:50:13;6.53;;;5.50;;
65047;SDS011;52089;51.362;-2.384;2023-02-15T08:53:56;7.23;;;5.40;;
65047;SDS011;52089;51.362;-2.384;2023-02-15T08:57:40;6.93;;;5.50;;
65047;SDS011;52089;51.362;-2.384;2023-02-15T09:01:27;9.20;;;5.43;;
65047;SDS011;52089;51.362;-2.384;2023-02-15T09:05:10;7.27;;;5.70;;
65047;SDS011;52089;51.362;-2.384;2023-02-15T09:08:52;6.80;;;5.50;;
65047;SDS011;52089;51.362;-2.384;2023-02-15T09:12:34;9.13;;;5.37;;
65047;SDS011;52089;51.362;-2.384;2023-02-15T09:16:16;7.87;;;5.33;;
65047;SDS011;52089;51.362;-2.384;2023-02-15T09:19:58;7.83;;;5.27;;
65047;SDS011;52089;51.362;-2.384;2023-02-15T09:23:40;6.57;;;5.20;;
65047;SDS011;52089;51.362;-2.384;2023-02-15T09:27:23;6.23;;;4.90;;
65047;SDS011;52089;51.362;-2.384;2023-02-15T09:31:12;8.53;;;5.30;;
65047;SDS011;52089;51.362;-2.384;2023-02-15T09:34:56;8.17;;;5.30;;
65047;SDS011;52089;51.362;-2.384;2023-02-15T09:38:38;6.77;;;4.80;;
65047;SDS011;52089;51.362;-2.384;2023-02-15T09:54:17;5.53;;;4.73;;
65047;SDS011;52089;51.362;-2.384;2023-02-15T10:10:26;5.73;;;3.90;;
65047;SDS011;52089;51.362;-2.384;2023-02-15T10:23:01;5.50;;;3.73;;
65047;SDS011;52089;51.362;-2.384;2023-02-15T10:26:45;7.30;;;4.07;;
65047;SDS011;52089;51.362;-2.384;2023-02-15T10:30:35;6.33;;;4.00;;
65047;SDS011;52089;51.362;-2.384;2023-02-15T10:34:40;5.27;;;4.27;;
65047;SDS011;52089;51.362;-2.384;2023-02-15T10:38:27;6.47;;;4.27;;
65047;SDS011;52089;51.362;-2.384;2023-02-15T10:43:03;5.73;;;3.97;;
65047;SDS011;52089;51.362;-2.384;2023-02-15T10:50:56;5.93;;;3.50;;
65047;SDS011;52089;51.362;-2.384;2023-02-15T11:06:18;5.57;;;3.53;;
65047;SDS011;52089;51.362;-2.384;2023-02-15T11:14:20;3.73;;;2.77;;
65047;SDS011;52089;51.362;-2.384;2023-02-15T11:18:25;5.53;;;3.60;;
65047;SDS011;52089;51.362;-2.384;2023-02-15T11:22:12;6.07;;;3.20;;
65047;SDS011;52089;51.362;-2.384;2023-02-15T11:25:57;6.67;;;3.20;;
65047;SDS011;52089;51.362;-2.384;2023-02-15T11:33:53;4.67;;;3.10;;
65047;SDS011;52089;51.362;-2.384;2023-02-15T11:37:51;5.40;;;2.93;;
65047;SDS011;52089;51.362;-2.384;2023-02-15T11:41:37;5.70;;;2.73;;
65047;SDS011;52089;51.362;-2.384;2023-02-15T11:45:29;5.93;;;2.97;;
65047;SDS011;52089;51.362;-2.384;2023-02-15T11:53:04;5.10;;;2.60;;
65047;SDS011;52089;51.362;-2.384;2023-02-15T11:56:53;5.53;;;2.67;;
65047;SDS011;52089;51.362;-2.384;2023-02-15T12:00:42;4.33;;;2.90;;
65047;SDS011;52089;51.362;-2.384;2023-02-15T12:04:34;4.13;;;2.83;;
65047;SDS011;52089;51.362;-2.384;2023-02-15T12:08:22;3.57;;;2.40;;
65047;SDS011;52089;51.362;-2.384;2023-02-15T12:16:09;3.23;;;2.67;;
65047;SDS011;52089;51.362;-2.384;2023-02-15T12:19:57;3.77;;;2.40;;
65047;SDS011;52089;51.362;-2.384;2023-02-15T12:27:59;4.53;;;2.30;;
65047;SDS011;52089;51.362;-2.384;2023-02-15T12:31:41;4.07;;;2.27;;
65047;SDS011;52089;51.362;-2.384;2023-02-15T12:35:30;4.20;;;2.37;;
65047;SDS011;52089;51.362;-2.384;2023-02-15T12:43:00;5.07;;;2.43;;
65047;SDS011;52089;51.362;-2.384;2023-02-15T12:46:59;6.13;;;2.00;;
65047;SDS011;52089;51.362;-2.384;2023-02-15T12:50:48;3.70;;;2.03;;
65047;SDS011;52089;51.362;-2.384;2023-02-15T12:54:41;3.37;;;1.90;;
65047;SDS011;52089;51.362;-2.384;2023-02-15T12:58:27;3.97;;;1.97;;
65047;SDS011;52089;51.362;-2.384;2023-02-15T13:02:14;3.93;;;2.23;;
65047;SDS011;52089;51.362;-2.384;2023-02-15T13:06:03;5.07;;;2.20;;
65047;SDS011;52089;51.362;-2.384;2023-02-15T13:09:48;5.83;;;2.87;;
65047;SDS011;52089;51.362;-2.384;2023-02-15T13:13:32;4.27;;;2.20;;
65047;SDS011;52089;51.362;-2.384;2023-02-15T13:17:16;3.50;;;1.93;;
65047;SDS011;52089;51.362;-2.384;2023-02-15T13:21:09;7.00;;;2.60;;
65047;SDS011;52089;51.362;-2.384;2023-02-15T13:24:58;3.90;;;2.20;;
65047;SDS011;52089;51.362;-2.384;2023-02-15T13:28:51;5.37;;;2.20;;
65047;SDS011;52089;51.362;-2.384;2023-02-15T13:32:37;5.20;;;2.30;;
65047;SDS011;52089;51.362;-2.384;2023-02-15T13:40:18;4.50;;;1.50;;
65047;SDS011;52089;51.362;-2.384;2023-02-15T13:48:16;4.70;;;2.07;;
65047;SDS011;52089;51.362;-2.384;2023-02-15T13:52:31;4.00;;;2.20;;
65047;SDS011;52089;51.362;-2.384;2023-02-15T13:56:32;3.70;;;2.07;;
65047;SDS011;52089;51.362;-2.384;2023-02-15T14:00:29;3.70;;;2.10;;
65047;SDS011;52089;51.362;-2.384;2023-02-15T14:08:21;5.23;;;2.00;;
65047;SDS011;52089;51.362;-2.384;2023-02-15T14:16:17;4.77;;;2.10;;
65047;SDS011;52089;51.362;-2.384;2023-02-15T14:20:21;6.00;;;2.33;;
65047;SDS011;52089;51.362;-2.384;2023-02-15T14:24:37;4.23;;;2.23;;
65047;SDS011;52089;51.362;-2.384;2023-02-15T14:32:35;2.83;;;1.90;;
65047;SDS011;52089;51.362;-2.384;2023-02-15T14:36:22;4.17;;;2.37;;
65047;SDS011;52089;51.362;-2.384;2023-02-15T14:40:30;3.40;;;1.83;;
65047;SDS011;52089;51.362;-2.384;2023-02-15T14:44:40;3.73;;;2.13;;
65047;SDS011;52089;51.362;-2.384;2023-02-15T14:48:44;7.28;;;2.20;;
65047;SDS011;52089;51.362;-2.384;2023-02-15T14:52:28;4.93;;;2.37;;
65047;SDS011;52089;51.362;-2.384;2023-02-15T15:00:01;5.13;;;2.20;;
65047;SDS011;52089;51.362;-2.384;2023-02-15T15:04:05;3.00;;;2.03;;
65047;SDS011;52089;51.362;-2.384;2023-02-15T15:08:03;4.67;;;2.03;;
65047;SDS011;52089;51.362;-2.384;2023-02-15T15:11:47;6.80;;;2.40;;
65047;SDS011;52089;51.362;-2.384;2023-02-15T15:15:37;3.70;;;2.23;;
65047;SDS011;52089;51.362;-2.384;2023-02-15T15:23:38;4.40;;;2.20;;
65047;SDS011;52089;51.362;-2.384;2023-02-15T15:47:20;4.17;;;1.70;;
65047;SDS011;52089;51.362;-2.384;2023-02-15T15:55:02;3.20;;;1.37;;
65047;SDS011;52089;51.362;-2.384;2023-02-15T15:58:56;2.23;;;1.13;;
65047;SDS011;52089;51.362;-2.384;2023-02-15T16:02:50;3.40;;;1.20;;
65047;SDS011;52089;51.362;-2.384;2023-02-15T16:06:34;2.97;;;1.20;;
65047;SDS011;52089;51.362;-2.384;2023-02-15T16:10:21;3.03;;;1.20;;
65047;SDS011;52089;51.362;-2.384;2023-02-15T16:14:10;2.70;;;1.30;;
65047;SDS011;52089;51.362;-2.384;2023-02-15T16:17:58;2.47;;;1.10;;
65047;SDS011;52089;51.362;-2.384;2023-02-15T16:21:40;2.03;;;1.13;;
65047;SDS011;52089;51.362;-2.384;2023-02-15T16:34:09;2.27;;;1.13;;
65047;SDS011;52089;51.362;-2.384;2023-02-15T16:37:58;2.73;;;1.10;;
65047;SDS011;52089;51.362;-2.384;2023-02-15T16:41:40;1.33;;;1.07;;
65047;SDS011;52089;51.362;-2.384;2023-02-15T16:45:27;1.43;;;0.80;;
65047;SDS011;52089;51.362;-2.384;2023-02-15T16:49:17;2.43;;;0.80;;
65047;SDS011;52089;51.362;-2.384;2023-02-15T16:53:05;1.27;;;0.60;;
65047;SDS011;52089;51.362;-2.384;2023-02-15T16:56:55;1.73;;;0.70;;
65047;SDS011;52089;51.362;-2.384;2023-02-15T17:00:37;1.57;;;0.60;;
65047;SDS011;52089;51.362;-2.384;2023-02-15T17:12:00;1.17;;;0.50;;
65047;SDS011;52089;51.362;-2.384;2023-02-15T17:15:44;1.77;;;0.77;;
65047;SDS011;52089;51.362;-2.384;2023-02-15T17:19:47;2.77;;;0.80;;
65047;SDS011;52089;51.362;-2.384;2023-02-15T17:23:32;3.93;;;0.67;;
65047;SDS011;52089;51.362;-2.384;2023-02-15T17:27:25;3.83;;;0.83;;
65047;SDS011;52089;51.362;-2.384;2023-02-15T17:31:12;1.30;;;0.67;;
65047;SDS011;52089;51.362;-2.384;2023-02-15T17:34:58;1.60;;;0.70;;
65047;SDS011;52089;51.362;-2.384;2023-02-15T17:42:39;1.33;;;0.60;;
65047;SDS011;52089;51.362;-2.384;2023-02-15T17:46:21;1.57;;;0.60;;
65047;SDS011;52089;51.362;-2.384;2023-02-15T17:50:04;0.60;;;0.50;;
65047;SDS011;52089;51.362;-2.384;2023-02-15T17:53:47;0.80;;;0.60;;
65047;SDS011;52089;51.362;-2.384;2023-02-15T17:57:47;1.10;;;0.60;;
65047;SDS011;52089;51.362;-2.384;2023-02-15T18:01:29;1.20;;;0.70;;
65047;SDS011;52089;51.362;-2.384;2023-02-15T18:05:29;1.83;;;0.80;;
65047;SDS011;52089;51.362;-2.384;2023-02-15T18:09:30;3.03;;;1.03;;
65047;SDS011;52089;51.362;-2.384;2023-02-15T18:13:30;1.17;;;0.60;;
65047;SDS011;52089;51.362;-2.384;2023-02-15T18:17:13;1.63;;;0.60;;
65047;SDS011;52089;51.362;-2.384;2023-02-15T18:20:55;1.60;;;0.57;;
65047;SDS011;52089;51.362;-2.384;2023-02-15T18:24:37;1.73;;;0.53;;
65047;SDS011;52089;51.362;-2.384;2023-02-15T18:28:19;1.40;;;0.50;;
65047;SDS011;52089;51.362;-2.384;2023-02-15T18:32:01;2.43;;;0.50;;
65047;SDS011;52089;51.362;-2.384;2023-02-15T18:35:44;1.30;;;0.50;;
65047;SDS011;52089;51.362;-2.384;2023-02-15T18:39:32;1.20;;;0.50;;
65047;SDS011;52089;51.362;-2.384;2023-02-15T18:43:20;1.20;;;0.67;;
65047;SDS011;52089;51.362;-2.384;2023-02-15T18:47:02;2.00;;;0.80;;
65047;SDS011;52089;51.362;-2.384;2023-02-15T18:50:44;2.80;;;0.53;;
65047;SDS011;52089;51.362;-2.384;2023-02-15T18:54:26;1.10;;;0.50;;
65047;SDS011;52089;51.362;-2.384;2023-02-15T18:58:13;1.43;;;0.50;;
65047;SDS011;52089;51.362;-2.384;2023-02-15T19:01:57;1.00;;;0.50;;
65047;SDS011;52089;51.362;-2.384;2023-02-15T19:05:41;1.03;;;0.60;;
65047;SDS011;52089;51.362;-2.384;2023-02-15T19:09:25;1.03;;;0.40;;
65047;SDS011;52089;51.362;-2.384;2023-02-15T19:13:09;1.03;;;0.50;;
65047;SDS011;52089;51.362;-2.384;2023-02-15T19:16:51;1.57;;;0.60;;
65047;SDS011;52089;51.362;-2.384;2023-02-15T19:20:38;1.00;;;0.50;;
65047;SDS011;52089;51.362;-2.384;2023-02-15T19:24:24;1.90;;;0.40;;
65047;SDS011;52089;51.362;-2.384;2023-02-15T19:28:19;1.63;;;0.70;;
65047;SDS011;52089;51.362;-2.384;2023-02-15T19:32:08;0.83;;;0.40;;
65047;SDS011;52089;51.362;-2.384;2023-02-15T19:35:52;1.37;;;0.53;;
65047;SDS011;52089;51.362;-2.384;2023-02-15T19:39:38;0.77;;;0.40;;
65047;SDS011;52089;51.362;-2.384;2023-02-15T19:43:22;1.03;;;0.40;;
65047;SDS011;52089;51.362;-2.384;2023-02-15T19:47:08;1.50;;;0.80;;
65047;SDS011;52089;51.362;-2.384;2023-02-15T19:50:52;2.37;;;1.30;;
65047;SDS011;52089;51.362;-2.384;2023-02-15T19:54:36;1.97;;;1.07;;
65047;SDS011;52089;51.362;-2.384;2023-02-15T19:58:18;2.40;;;0.93;;
65047;SDS011;52089;51.362;-2.384;2023-02-15T20:02:01;1.47;;;0.90;;
65047;SDS011;52089;51.362;-2.384;2023-02-15T20:05:43;1.70;;;1.00;;
65047;SDS011;52089;51.362;-2.384;2023-02-15T20:09:27;1.73;;;1.00;;
65047;SDS011;52089;51.362;-2.384;2023-02-15T20:13:12;2.00;;;0.90;;
65047;SDS011;52089;51.362;-2.384;2023-02-15T20:16:55;1.47;;;0.70;;
65047;SDS011;52089;51.362;-2.384;2023-02-15T20:20:38;1.13;;;0.60;;
65047;SDS011;52089;51.362;-2.384;2023-02-15T20:24:21;2.27;;;1.00;;
65047;SDS011;52089;51.362;-2.384;2023-02-15T20:28:05;2.13;;;0.70;;
65047;SDS011;52089;51.362;-2.384;2023-02-15T20:31:48;1.00;;;0.50;;
65047;SDS011;52089;51.362;-2.384;2023-02-15T20:35:31;0.90;;;0.60;;
65047;SDS011;52089;51.362;-2.384;2023-02-15T20:39:14;1.97;;;0.70;;
65047;SDS011;52089;51.362;-2.384;2023-02-15T20:43:00;2.73;;;0.90;;
65047;SDS011;52089;51.362;-2.384;2023-02-15T20:46:42;2.00;;;0.60;;
65047;SDS011;52089;51.362;-2.384;2023-02-15T20:50:25;1.50;;;0.60;;
65047;SDS011;52089;51.362;-2.384;2023-02-15T20:54:15;2.00;;;0.87;;
65047;SDS011;52089;51.362;-2.384;2023-02-15T20:57:59;1.23;;;0.60;;
65047;SDS011;52089;51.362;-2.384;2023-02-15T21:01:41;1.67;;;0.43;;
65047;SDS011;52089;51.362;-2.384;2023-02-15T21:05:23;0.97;;;0.53;;
65047;SDS011;52089;51.362;-2.384;2023-02-15T21:09:11;1.53;;;0.70;;
65047;SDS011;52089;51.362;-2.384;2023-02-15T21:12:54;1.87;;;0.70;;
65047;SDS011;52089;51.362;-2.384;2023-02-15T21:16:38;1.90;;;1.00;;
65047;SDS011;52089;51.362;-2.384;2023-02-15T21:20:20;1.20;;;0.70;;
65047;SDS011;52089;51.362;-2.384;2023-02-15T21:24:02;1.77;;;0.70;;
65047;SDS011;52089;51.362;-2.384;2023-02-15T21:27:44;1.07;;;0.67;;
65047;SDS011;52089;51.362;-2.384;2023-02-15T21:31:26;1.93;;;0.63;;
65047;SDS011;52089;51.362;-2.384;2023-02-15T21:35:11;1.70;;;0.77;;
65047;SDS011;52089;51.362;-2.384;2023-02-15T21:38:54;1.80;;;0.73;;
65047;SDS011;52089;51.362;-2.384;2023-02-15T21:42:36;2.73;;;0.80;;
65047;SDS011;52089;51.362;-2.384;2023-02-15T21:46:37;1.53;;;0.67;;
65047;SDS011;52089;51.362;-2.384;2023-02-15T21:50:37;1.47;;;0.57;;
65047;SDS011;52089;51.362;-2.384;2023-02-15T21:54:40;1.50;;;0.63;;
65047;SDS011;52089;51.362;-2.384;2023-02-15T21:58:23;2.03;;;0.70;;
65047;SDS011;52089;51.362;-2.384;2023-02-15T22:02:24;1.87;;;0.60;;
65047;SDS011;52089;51.362;-2.384;2023-02-15T22:06:11;1.47;;;0.50;;
65047;SDS011;52089;51.362;-2.384;2023-02-15T22:09:53;1.73;;;0.60;;
65047;SDS011;52089;51.362;-2.384;2023-02-15T22:13:35;1.83;;;0.60;;
65047;SDS011;52089;51.362;-2.384;2023-02-15T22:17:19;1.10;;;0.60;;
65047;SDS011;52089;51.362;-2.384;2023-02-15T22:21:05;1.30;;;0.60;;
65047;SDS011;52089;51.362;-2.384;2023-02-15T22:24:49;1.33;;;0.70;;
65047;SDS011;52089;51.362;-2.384;2023-02-15T22:28:31;1.03;;;0.60;;
65047;SDS011;52089;51.362;-2.384;2023-02-15T22:32:26;1.17;;;0.70;;
65047;SDS011;52089;51.362;-2.384;2023-02-15T22:36:27;0.90;;;0.60;;
65047;SDS011;52089;51.362;-2.384;2023-02-15T22:40:13;1.83;;;0.60;;
65047;SDS011;52089;51.362;-2.384;2023-02-15T22:43:56;2.20;;;0.67;;
65047;SDS011;52089;51.362;-2.384;2023-02-15T22:47:38;1.27;;;0.70;;
65047;SDS011;52089;51.362;-2.384;2023-02-15T22:51:20;1.60;;;0.70;;
65047;SDS011;52089;51.362;-2.384;2023-02-15T22:55:04;1.23;;;0.70;;
65047;SDS011;52089;51.362;-2.384;2023-02-15T22:58:46;1.20;;;0.53;;
65047;SDS011;52089;51.362;-2.384;2023-02-15T23:02:30;1.00;;;0.60;;
65047;SDS011;52089;51.362;-2.384;2023-02-15T23:06:12;0.73;;;0.50;;
65047;SDS011;52089;51.362;-2.384;2023-02-15T23:09:53;1.67;;;0.60;;
65047;SDS011;52089;51.362;-2.384;2023-02-15T23:13:35;1.33;;;0.60;;
65047;SDS011;52089;51.362;-2.384;2023-02-15T23:17:18;1.07;;;0.50;;
65047;SDS011;52089;51.362;-2.384;2023-02-15T23:21:01;1.83;;;0.80;;
65047;SDS011;52089;51.362;-2.384;2023-02-15T23:24:50;1.58;;;0.60;;
65047;SDS011;52089;51.362;-2.384;2023-02-15T23:28:34;1.10;;;0.60;;
65047;SDS011;52089;51.362;-2.384;2023-02-15T23:32:18;1.37;;;0.63;;
65047;SDS011;52089;51.362;-2.384;2023-02-15T23:36:02;0.90;;;0.70;;
65047;SDS011;52089;51.362;-2.384;2023-02-15T23:39:44;1.90;;;0.80;;
65047;SDS011;52089;51.362;-2.384;2023-02-15T23:43:45;1.00;;;0.50;;
65047;SDS011;52089;51.362;-2.384;2023-02-15T23:47:30;1.03;;;0.70;;
65047;SDS011;52089;51.362;-2.384;2023-02-15T23:51:33;1.00;;;0.60;;
65047;SDS011;52089;51.362;-2.384;2023-02-15T23:55:15;1.23;;;0.70;;
65047;SDS011;52089;51.362;-2.384;2023-02-15T23:58:57;2.03;;;0.83;;
